sensor_id;sensor_type;location;lat;lon;timestamp;P1;durP1;ratioP1;P2;durP2;ratioP2
7899;SDS011;3995;50.856;4.404;2023-07-22T00:00:09;8.47;;;6.83;;
7899;SDS011;3995;50.856;4.404;2023-07-22T00:02:40;8.20;;;7.00;;
7899;SDS011;3995;50.856;4.404;2023-07-22T00:05:07;8.10;;;6.53;;
7899;SDS011;3995;50.856;4.404;2023-07-22T00:07:36;9.13;;;6.70;;
7899;SDS011;3995;50.856;4.404;2023-07-22T00:10:05;9.50;;;7.00;;
7899;SDS011;3995;50.856;4.404;2023-07-22T00:12:34;11.37;;;8.03;;
7899;SDS011;3995;50.856;4.404;2023-07-22T00:15:02;7.17;;;6.43;;
7899;SDS011;3995;50.856;4.404;2023-07-22T00:17:32;9.70;;;6.80;;
7899;SDS011;3995;50.856;4.404;2023-07-22T00:20:00;9.40;;;6.23;;
7899;SDS011;3995;50.856;4.404;2023-07-22T00:22:29;8.70;;;6.47;;
7899;SDS011;3995;50.856;4.404;2023-07-22T00:24:57;9.77;;;7.10;;
7899;SDS011;3995;50.856;4.404;2023-07-22T00:27:26;7.07;;;6.03;;
7899;SDS011;3995;50.856;4.404;2023-07-22T00:29:54;7.17;;;5.87;;
7899;SDS011;3995;50.856;4.404;2023-07-22T00:32:21;8.50;;;6.70;;
7899;SDS011;3995;50.856;4.404;2023-07-22T00:34:50;7.07;;;5.80;;
7899;SDS011;3995;50.856;4.404;2023-07-22T00:37:17;10.73;;;6.33;;
7899;SDS011;3995;50.856;4.404;2023-07-22T00:39:44;8.33;;;7.13;;
7899;SDS011;3995;50.856;4.404;2023-07-22T00:42:12;6.97;;;5.97;;
7899;SDS011;3995;50.856;4.404;2023-07-22T00:44:39;9.73;;;7.13;;
7899;SDS011;3995;50.856;4.404;2023-07-22T00:47:06;8.80;;;6.17;;
7899;SDS011;3995;50.856;4.404;2023-07-22T00:49:35;7.97;;;6.10;;
7899;SDS011;3995;50.856;4.404;2023-07-22T00:52:05;15.60;;;7.53;;
7899;SDS011;3995;50.856;4.404;2023-07-22T00:54:32;7.73;;;5.73;;
7899;SDS011;3995;50.856;4.404;2023-07-22T00:57:00;6.83;;;6.00;;
7899;SDS011;3995;50.856;4.404;2023-07-22T00:59:28;12.23;;;6.67;;
7899;SDS011;3995;50.856;4.404;2023-07-22T01:01:55;11.03;;;6.37;;
7899;SDS011;3995;50.856;4.404;2023-07-22T01:04:23;7.87;;;5.90;;
7899;SDS011;3995;50.856;4.404;2023-07-22T01:06:51;10.80;;;7.27;;
7899;SDS011;3995;50.856;4.404;2023-07-22T01:09:21;8.33;;;7.10;;
7899;SDS011;3995;50.856;4.404;2023-07-22T01:11:48;9.90;;;7.63;;
7899;SDS011;3995;50.856;4.404;2023-07-22T01:14:15;7.47;;;6.00;;
7899;SDS011;3995;50.856;4.404;2023-07-22T01:16:43;8.37;;;6.27;;
7899;SDS011;3995;50.856;4.404;2023-07-22T01:19:10;12.03;;;8.00;;
7899;SDS011;3995;50.856;4.404;2023-07-22T01:21:41;9.80;;;7.00;;
7899;SDS011;3995;50.856;4.404;2023-07-22T01:24:13;8.50;;;7.27;;
7899;SDS011;3995;50.856;4.404;2023-07-22T01:26:41;7.90;;;7.00;;
7899;SDS011;3995;50.856;4.404;2023-07-22T01:29:09;11.97;;;7.33;;
7899;SDS011;3995;50.856;4.404;2023-07-22T01:31:37;10.40;;;6.67;;
7899;SDS011;3995;50.856;4.404;2023-07-22T01:34:05;12.63;;;7.23;;
7899;SDS011;3995;50.856;4.404;2023-07-22T01:36:33;9.03;;;7.13;;
7899;SDS011;3995;50.856;4.404;2023-07-22T01:39:00;11.33;;;6.80;;
7899;SDS011;3995;50.856;4.404;2023-07-22T01:41:29;9.40;;;7.30;;
7899;SDS011;3995;50.856;4.404;2023-07-22T01:43:57;10.87;;;6.70;;
7899;SDS011;3995;50.856;4.404;2023-07-22T01:46:25;9.30;;;7.13;;
7899;SDS011;3995;50.856;4.404;2023-07-22T01:48:52;9.83;;;7.53;;
7899;SDS011;3995;50.856;4.404;2023-07-22T01:51:19;10.37;;;7.30;;
7899;SDS011;3995;50.856;4.404;2023-07-22T01:53:46;13.03;;;7.63;;
7899;SDS011;3995;50.856;4.404;2023-07-22T01:56:14;7.90;;;6.73;;
7899;SDS011;3995;50.856;4.404;2023-07-22T01:58:43;13.20;;;7.63;;
7899;SDS011;3995;50.856;4.404;2023-07-22T02:01:09;10.17;;;6.53;;
7899;SDS011;3995;50.856;4.404;2023-07-22T02:03:39;13.13;;;8.10;;
7899;SDS011;3995;50.856;4.404;2023-07-22T02:06:06;9.20;;;7.60;;
7899;SDS011;3995;50.856;4.404;2023-07-22T02:08:33;7.40;;;6.63;;
7899;SDS011;3995;50.856;4.404;2023-07-22T02:11:01;9.30;;;7.50;;
7899;SDS011;3995;50.856;4.404;2023-07-22T02:13:30;10.70;;;7.57;;
7899;SDS011;3995;50.856;4.404;2023-07-22T02:16:00;11.63;;;6.90;;
7899;SDS011;3995;50.856;4.404;2023-07-22T02:18:28;10.40;;;6.43;;
7899;SDS011;3995;50.856;4.404;2023-07-22T02:20:56;8.70;;;7.20;;
7899;SDS011;3995;50.856;4.404;2023-07-22T02:23:24;11.50;;;7.03;;
7899;SDS011;3995;50.856;4.404;2023-07-22T02:25:52;11.90;;;8.30;;
7899;SDS011;3995;50.856;4.404;2023-07-22T02:28:20;14.40;;;8.10;;
7899;SDS011;3995;50.856;4.404;2023-07-22T02:30:48;8.97;;;7.17;;
7899;SDS011;3995;50.856;4.404;2023-07-22T02:33:19;8.17;;;7.00;;
7899;SDS011;3995;50.856;4.404;2023-07-22T02:35:48;9.67;;;7.33;;
7899;SDS011;3995;50.856;4.404;2023-07-22T02:38:15;10.30;;;7.03;;
7899;SDS011;3995;50.856;4.404;2023-07-22T02:40:43;10.03;;;8.00;;
7899;SDS011;3995;50.856;4.404;2023-07-22T02:43:10;10.13;;;8.00;;
7899;SDS011;3995;50.856;4.404;2023-07-22T02:45:38;11.23;;;7.90;;
7899;SDS011;3995;50.856;4.404;2023-07-22T02:48:05;10.83;;;7.83;;
7899;SDS011;3995;50.856;4.404;2023-07-22T02:50:34;9.23;;;8.10;;
7899;SDS011;3995;50.856;4.404;2023-07-22T02:53:01;13.03;;;8.43;;
7899;SDS011;3995;50.856;4.404;2023-07-22T02:55:29;12.50;;;8.07;;
7899;SDS011;3995;50.856;4.404;2023-07-22T02:57:56;12.07;;;8.67;;
7899;SDS011;3995;50.856;4.404;2023-07-22T03:00:24;13.40;;;8.13;;
7899;SDS011;3995;50.856;4.404;2023-07-22T03:02:51;14.40;;;9.67;;
7899;SDS011;3995;50.856;4.404;2023-07-22T03:05:25;11.83;;;9.07;;
7899;SDS011;3995;50.856;4.404;2023-07-22T03:07:55;12.73;;;8.20;;
7899;SDS011;3995;50.856;4.404;2023-07-22T03:10:23;20.57;;;8.30;;
7899;SDS011;3995;50.856;4.404;2023-07-22T03:12:50;13.23;;;9.00;;
7899;SDS011;3995;50.856;4.404;2023-07-22T03:15:20;16.43;;;8.33;;
7899;SDS011;3995;50.856;4.404;2023-07-22T03:17:48;11.60;;;8.67;;
7899;SDS011;3995;50.856;4.404;2023-07-22T03:20:15;13.10;;;8.27;;
7899;SDS011;3995;50.856;4.404;2023-07-22T03:22:44;11.67;;;8.00;;
7899;SDS011;3995;50.856;4.404;2023-07-22T03:25:14;13.57;;;8.83;;
7899;SDS011;3995;50.856;4.404;2023-07-22T03:27:42;9.97;;;8.03;;
7899;SDS011;3995;50.856;4.404;2023-07-22T03:30:10;15.43;;;9.30;;
7899;SDS011;3995;50.856;4.404;2023-07-22T03:32:40;11.80;;;8.03;;
7899;SDS011;3995;50.856;4.404;2023-07-22T03:35:07;10.03;;;8.37;;
7899;SDS011;3995;50.856;4.404;2023-07-22T03:37:35;12.87;;;8.90;;
7899;SDS011;3995;50.856;4.404;2023-07-22T03:40:03;13.20;;;9.03;;
7899;SDS011;3995;50.856;4.404;2023-07-22T03:42:34;11.67;;;8.60;;
7899;SDS011;3995;50.856;4.404;2023-07-22T03:45:02;11.03;;;9.17;;
7899;SDS011;3995;50.856;4.404;2023-07-22T03:47:29;13.90;;;8.57;;
7899;SDS011;3995;50.856;4.404;2023-07-22T03:49:56;12.93;;;8.53;;
7899;SDS011;3995;50.856;4.404;2023-07-22T03:52:24;14.07;;;9.30;;
7899;SDS011;3995;50.856;4.404;2023-07-22T03:54:52;10.50;;;8.63;;
7899;SDS011;3995;50.856;4.404;2023-07-22T03:57:22;11.87;;;8.10;;
7899;SDS011;3995;50.856;4.404;2023-07-22T03:59:53;12.30;;;8.53;;
7899;SDS011;3995;50.856;4.404;2023-07-22T04:02:21;15.23;;;8.53;;
7899;SDS011;3995;50.856;4.404;2023-07-22T04:04:48;12.73;;;8.83;;
7899;SDS011;3995;50.856;4.404;2023-07-22T04:07:16;10.53;;;8.03;;
7899;SDS011;3995;50.856;4.404;2023-07-22T04:09:43;16.13;;;7.77;;
7899;SDS011;3995;50.856;4.404;2023-07-22T04:12:11;15.63;;;8.73;;
7899;SDS011;3995;50.856;4.404;2023-07-22T04:14:39;10.00;;;7.77;;
7899;SDS011;3995;50.856;4.404;2023-07-22T04:17:08;20.87;;;8.80;;
7899;SDS011;3995;50.856;4.404;2023-07-22T04:19:35;13.87;;;8.83;;
7899;SDS011;3995;50.856;4.404;2023-07-22T04:22:04;17.40;;;8.53;;
7899;SDS011;3995;50.856;4.404;2023-07-22T04:24:32;12.10;;;7.87;;
7899;SDS011;3995;50.856;4.404;2023-07-22T04:27:00;10.70;;;7.63;;
7899;SDS011;3995;50.856;4.404;2023-07-22T04:29:28;18.70;;;9.30;;
7899;SDS011;3995;50.856;4.404;2023-07-22T04:31:57;10.90;;;7.97;;
7899;SDS011;3995;50.856;4.404;2023-07-22T04:34:27;13.50;;;8.23;;
7899;SDS011;3995;50.856;4.404;2023-07-22T04:36:56;12.27;;;8.50;;
7899;SDS011;3995;50.856;4.404;2023-07-22T04:39:23;11.87;;;8.50;;
7899;SDS011;3995;50.856;4.404;2023-07-22T04:41:51;12.23;;;8.30;;
7899;SDS011;3995;50.856;4.404;2023-07-22T04:44:18;17.63;;;7.87;;
7899;SDS011;3995;50.856;4.404;2023-07-22T04:46:46;13.67;;;8.80;;
7899;SDS011;3995;50.856;4.404;2023-07-22T04:49:13;13.00;;;8.53;;
7899;SDS011;3995;50.856;4.404;2023-07-22T04:51:45;13.30;;;8.27;;
7899;SDS011;3995;50.856;4.404;2023-07-22T04:54:12;12.30;;;8.50;;
7899;SDS011;3995;50.856;4.404;2023-07-22T04:56:40;10.90;;;7.43;;
7899;SDS011;3995;50.856;4.404;2023-07-22T04:59:09;10.73;;;7.30;;
7899;SDS011;3995;50.856;4.404;2023-07-22T05:01:38;10.83;;;7.37;;
7899;SDS011;3995;50.856;4.404;2023-07-22T05:04:05;10.87;;;7.20;;
7899;SDS011;3995;50.856;4.404;2023-07-22T05:06:33;8.43;;;6.70;;
7899;SDS011;3995;50.856;4.404;2023-07-22T05:09:02;12.13;;;7.00;;
7899;SDS011;3995;50.856;4.404;2023-07-22T05:11:30;12.33;;;7.87;;
7899;SDS011;3995;50.856;4.404;2023-07-22T05:13:57;19.87;;;8.63;;
7899;SDS011;3995;50.856;4.404;2023-07-22T05:16:24;20.53;;;7.90;;
7899;SDS011;3995;50.856;4.404;2023-07-22T05:18:51;14.50;;;6.43;;
7899;SDS011;3995;50.856;4.404;2023-07-22T05:21:19;11.47;;;6.93;;
7899;SDS011;3995;50.856;4.404;2023-07-22T05:23:46;12.70;;;6.73;;
7899;SDS011;3995;50.856;4.404;2023-07-22T05:26:15;11.60;;;6.87;;
7899;SDS011;3995;50.856;4.404;2023-07-22T05:28:42;24.00;;;8.30;;
7899;SDS011;3995;50.856;4.404;2023-07-22T05:31:10;11.63;;;7.07;;
7899;SDS011;3995;50.856;4.404;2023-07-22T05:33:39;11.83;;;7.00;;
7899;SDS011;3995;50.856;4.404;2023-07-22T05:36:07;14.53;;;7.33;;
7899;SDS011;3995;50.856;4.404;2023-07-22T05:38:34;10.23;;;6.50;;
7899;SDS011;3995;50.856;4.404;2023-07-22T05:41:01;10.80;;;6.67;;
7899;SDS011;3995;50.856;4.404;2023-07-22T05:43:29;15.83;;;8.30;;
7899;SDS011;3995;50.856;4.404;2023-07-22T05:45:57;11.20;;;6.33;;
7899;SDS011;3995;50.856;4.404;2023-07-22T05:48:24;11.27;;;6.20;;
7899;SDS011;3995;50.856;4.404;2023-07-22T05:50:52;17.97;;;6.70;;
7899;SDS011;3995;50.856;4.404;2023-07-22T05:53:19;8.77;;;6.03;;
7899;SDS011;3995;50.856;4.404;2023-07-22T05:55:46;10.33;;;5.70;;
7899;SDS011;3995;50.856;4.404;2023-07-22T05:58:17;9.73;;;6.00;;
7899;SDS011;3995;50.856;4.404;2023-07-22T06:00:47;12.43;;;6.93;;
7899;SDS011;3995;50.856;4.404;2023-07-22T06:03:16;10.73;;;5.93;;
7899;SDS011;3995;50.856;4.404;2023-07-22T06:05:43;13.00;;;6.50;;
7899;SDS011;3995;50.856;4.404;2023-07-22T06:08:10;11.30;;;6.10;;
7899;SDS011;3995;50.856;4.404;2023-07-22T06:10:39;10.87;;;6.00;;
7899;SDS011;3995;50.856;4.404;2023-07-22T06:13:06;9.77;;;6.17;;
7899;SDS011;3995;50.856;4.404;2023-07-22T06:15:34;17.87;;;5.80;;
7899;SDS011;3995;50.856;4.404;2023-07-22T06:18:03;16.00;;;5.40;;
7899;SDS011;3995;50.856;4.404;2023-07-22T06:20:33;8.80;;;5.50;;
7899;SDS011;3995;50.856;4.404;2023-07-22T06:23:03;14.23;;;5.43;;
7899;SDS011;3995;50.856;4.404;2023-07-22T06:25:31;11.40;;;5.37;;
7899;SDS011;3995;50.856;4.404;2023-07-22T06:27:59;13.27;;;5.43;;
7899;SDS011;3995;50.856;4.404;2023-07-22T06:30:27;11.53;;;5.83;;
7899;SDS011;3995;50.856;4.404;2023-07-22T06:32:54;8.10;;;5.80;;
7899;SDS011;3995;50.856;4.404;2023-07-22T06:35:23;14.00;;;6.00;;
7899;SDS011;3995;50.856;4.404;2023-07-22T06:37:51;13.50;;;6.40;;
7899;SDS011;3995;50.856;4.404;2023-07-22T06:40:18;11.60;;;5.80;;
7899;SDS011;3995;50.856;4.404;2023-07-22T06:42:46;10.57;;;5.23;;
7899;SDS011;3995;50.856;4.404;2023-07-22T06:45:14;8.33;;;5.47;;
7899;SDS011;3995;50.856;4.404;2023-07-22T06:47:42;12.10;;;5.90;;
7899;SDS011;3995;50.856;4.404;2023-07-22T06:50:10;12.27;;;5.50;;
7899;SDS011;3995;50.856;4.404;2023-07-22T06:52:39;9.23;;;5.40;;
7899;SDS011;3995;50.856;4.404;2023-07-22T06:55:07;15.03;;;5.40;;
7899;SDS011;3995;50.856;4.404;2023-07-22T06:57:36;10.20;;;4.70;;
7899;SDS011;3995;50.856;4.404;2023-07-22T07:00:04;5.80;;;5.03;;
7899;SDS011;3995;50.856;4.404;2023-07-22T07:02:35;8.17;;;5.20;;
7899;SDS011;3995;50.856;4.404;2023-07-22T07:05:02;11.10;;;5.30;;
7899;SDS011;3995;50.856;4.404;2023-07-22T07:07:30;13.17;;;5.87;;
7899;SDS011;3995;50.856;4.404;2023-07-22T07:09:59;11.33;;;4.93;;
7899;SDS011;3995;50.856;4.404;2023-07-22T07:12:27;13.73;;;5.97;;
7899;SDS011;3995;50.856;4.404;2023-07-22T07:14:55;13.73;;;5.33;;
7899;SDS011;3995;50.856;4.404;2023-07-22T07:17:23;6.83;;;5.63;;
7899;SDS011;3995;50.856;4.404;2023-07-22T07:19:51;8.43;;;5.33;;
7899;SDS011;3995;50.856;4.404;2023-07-22T07:22:18;6.77;;;4.63;;
7899;SDS011;3995;50.856;4.404;2023-07-22T07:24:46;10.00;;;5.30;;
7899;SDS011;3995;50.856;4.404;2023-07-22T07:27:15;12.70;;;5.87;;
7899;SDS011;3995;50.856;4.404;2023-07-22T07:29:43;7.57;;;5.50;;
7899;SDS011;3995;50.856;4.404;2023-07-22T07:32:10;10.30;;;5.60;;
7899;SDS011;3995;50.856;4.404;2023-07-22T07:34:38;15.43;;;5.50;;
7899;SDS011;3995;50.856;4.404;2023-07-22T07:37:06;13.83;;;4.20;;
7899;SDS011;3995;50.856;4.404;2023-07-22T07:39:33;10.27;;;5.17;;
7899;SDS011;3995;50.856;4.404;2023-07-22T07:42:00;10.43;;;5.53;;
7899;SDS011;3995;50.856;4.404;2023-07-22T07:44:29;9.07;;;4.80;;
7899;SDS011;3995;50.856;4.404;2023-07-22T07:46:56;10.37;;;4.93;;
7899;SDS011;3995;50.856;4.404;2023-07-22T07:49:24;10.90;;;4.83;;
7899;SDS011;3995;50.856;4.404;2023-07-22T07:51:52;6.57;;;4.13;;
7899;SDS011;3995;50.856;4.404;2023-07-22T07:54:19;10.43;;;4.77;;
7899;SDS011;3995;50.856;4.404;2023-07-22T07:56:46;8.73;;;4.60;;
7899;SDS011;3995;50.856;4.404;2023-07-22T07:59:14;7.03;;;4.50;;
7899;SDS011;3995;50.856;4.404;2023-07-22T08:01:43;7.27;;;4.50;;
7899;SDS011;3995;50.856;4.404;2023-07-22T08:04:12;9.43;;;4.60;;
7899;SDS011;3995;50.856;4.404;2023-07-22T08:06:39;17.03;;;5.53;;
7899;SDS011;3995;50.856;4.404;2023-07-22T08:09:07;9.93;;;4.57;;
7899;SDS011;3995;50.856;4.404;2023-07-22T08:11:35;30.10;;;5.87;;
7899;SDS011;3995;50.856;4.404;2023-07-22T08:14:03;9.20;;;5.40;;
7899;SDS011;3995;50.856;4.404;2023-07-22T08:16:33;11.87;;;5.07;;
7899;SDS011;3995;50.856;4.404;2023-07-22T08:19:02;13.13;;;4.77;;
7899;SDS011;3995;50.856;4.404;2023-07-22T08:21:30;10.90;;;4.93;;
7899;SDS011;3995;50.856;4.404;2023-07-22T08:23:57;8.73;;;4.53;;
7899;SDS011;3995;50.856;4.404;2023-07-22T08:26:24;10.70;;;4.07;;
7899;SDS011;3995;50.856;4.404;2023-07-22T08:28:52;8.63;;;4.13;;
7899;SDS011;3995;50.856;4.404;2023-07-22T08:31:19;9.70;;;4.20;;
7899;SDS011;3995;50.856;4.404;2023-07-22T08:33:47;12.20;;;4.07;;
7899;SDS011;3995;50.856;4.404;2023-07-22T08:36:15;7.60;;;4.37;;
7899;SDS011;3995;50.856;4.404;2023-07-22T08:38:42;11.17;;;4.00;;
7899;SDS011;3995;50.856;4.404;2023-07-22T08:41:13;13.60;;;4.10;;
7899;SDS011;3995;50.856;4.404;2023-07-22T08:43:42;5.30;;;3.77;;
7899;SDS011;3995;50.856;4.404;2023-07-22T08:46:12;5.47;;;3.50;;
7899;SDS011;3995;50.856;4.404;2023-07-22T08:48:42;14.13;;;3.73;;
7899;SDS011;3995;50.856;4.404;2023-07-22T08:51:15;13.40;;;4.00;;
7899;SDS011;3995;50.856;4.404;2023-07-22T08:53:45;9.00;;;3.60;;
7899;SDS011;3995;50.856;4.404;2023-07-22T08:56:13;7.93;;;3.83;;
7899;SDS011;3995;50.856;4.404;2023-07-22T08:58:41;4.80;;;3.10;;
7899;SDS011;3995;50.856;4.404;2023-07-22T09:01:08;7.63;;;3.87;;
7899;SDS011;3995;50.856;4.404;2023-07-22T09:03:36;7.40;;;3.30;;
7899;SDS011;3995;50.856;4.404;2023-07-22T09:06:05;4.87;;;3.27;;
7899;SDS011;3995;50.856;4.404;2023-07-22T09:08:35;7.77;;;3.60;;
7899;SDS011;3995;50.856;4.404;2023-07-22T09:11:03;7.33;;;3.10;;
7899;SDS011;3995;50.856;4.404;2023-07-22T09:13:31;5.07;;;2.93;;
7899;SDS011;3995;50.856;4.404;2023-07-22T09:15:59;5.23;;;2.80;;
7899;SDS011;3995;50.856;4.404;2023-07-22T09:18:28;5.00;;;2.73;;
7899;SDS011;3995;50.856;4.404;2023-07-22T09:20:56;4.30;;;2.47;;
7899;SDS011;3995;50.856;4.404;2023-07-22T09:23:31;7.20;;;2.37;;
7899;SDS011;3995;50.856;4.404;2023-07-22T09:26:09;5.50;;;2.70;;
7899;SDS011;3995;50.856;4.404;2023-07-22T09:28:47;4.90;;;2.80;;
7899;SDS011;3995;50.856;4.404;2023-07-22T09:31:16;4.73;;;2.20;;
7899;SDS011;3995;50.856;4.404;2023-07-22T09:33:43;9.03;;;2.60;;
7899;SDS011;3995;50.856;4.404;2023-07-22T09:36:10;5.43;;;2.70;;
7899;SDS011;3995;50.856;4.404;2023-07-22T09:38:38;5.93;;;2.17;;
7899;SDS011;3995;50.856;4.404;2023-07-22T09:41:06;3.73;;;2.20;;
7899;SDS011;3995;50.856;4.404;2023-07-22T09:43:38;4.20;;;2.53;;
7899;SDS011;3995;50.856;4.404;2023-07-22T09:46:06;2.87;;;2.33;;
7899;SDS011;3995;50.856;4.404;2023-07-22T09:48:40;2.70;;;1.90;;
7899;SDS011;3995;50.856;4.404;2023-07-22T09:51:13;6.23;;;2.20;;
7899;SDS011;3995;50.856;4.404;2023-07-22T09:53:45;4.43;;;2.13;;
7899;SDS011;3995;50.856;4.404;2023-07-22T09:56:15;5.13;;;2.50;;
7899;SDS011;3995;50.856;4.404;2023-07-22T09:58:43;25.57;;;3.17;;
7899;SDS011;3995;50.856;4.404;2023-07-22T10:01:13;11.33;;;2.63;;
7899;SDS011;3995;50.856;4.404;2023-07-22T10:03:43;4.13;;;2.07;;
7899;SDS011;3995;50.856;4.404;2023-07-22T10:06:12;4.93;;;2.30;;
7899;SDS011;3995;50.856;4.404;2023-07-22T10:08:41;8.33;;;2.63;;
7899;SDS011;3995;50.856;4.404;2023-07-22T10:11:14;6.00;;;2.00;;
7899;SDS011;3995;50.856;4.404;2023-07-22T10:13:43;5.50;;;1.83;;
7899;SDS011;3995;50.856;4.404;2023-07-22T10:16:12;5.60;;;2.37;;
7899;SDS011;3995;50.856;4.404;2023-07-22T10:18:39;2.60;;;1.70;;
7899;SDS011;3995;50.856;4.404;2023-07-22T10:21:09;5.30;;;2.20;;
7899;SDS011;3995;50.856;4.404;2023-07-22T10:23:38;3.23;;;2.23;;
7899;SDS011;3995;50.856;4.404;2023-07-22T10:26:06;3.43;;;2.57;;
7899;SDS011;3995;50.856;4.404;2023-07-22T10:28:40;14.30;;;2.40;;
7899;SDS011;3995;50.856;4.404;2023-07-22T10:31:10;3.47;;;2.03;;
7899;SDS011;3995;50.856;4.404;2023-07-22T10:33:39;9.80;;;2.00;;
7899;SDS011;3995;50.856;4.404;2023-07-22T10:36:07;3.83;;;1.97;;
7899;SDS011;3995;50.856;4.404;2023-07-22T10:38:36;5.40;;;2.00;;
7899;SDS011;3995;50.856;4.404;2023-07-22T10:41:11;7.30;;;2.33;;
7899;SDS011;3995;50.856;4.404;2023-07-22T10:43:40;4.03;;;2.30;;
7899;SDS011;3995;50.856;4.404;2023-07-22T10:46:09;3.13;;;1.83;;
7899;SDS011;3995;50.856;4.404;2023-07-22T10:48:38;2.73;;;1.80;;
7899;SDS011;3995;50.856;4.404;2023-07-22T10:51:08;6.40;;;2.13;;
7899;SDS011;3995;50.856;4.404;2023-07-22T10:53:41;3.77;;;1.70;;
7899;SDS011;3995;50.856;4.404;2023-07-22T10:56:13;2.50;;;1.87;;
7899;SDS011;3995;50.856;4.404;2023-07-22T10:58:59;5.63;;;1.70;;
7899;SDS011;3995;50.856;4.404;2023-07-22T11:01:35;3.93;;;1.87;;
7899;SDS011;3995;50.856;4.404;2023-07-22T11:04:07;5.03;;;2.00;;
7899;SDS011;3995;50.856;4.404;2023-07-22T11:06:36;2.40;;;1.90;;
7899;SDS011;3995;50.856;4.404;2023-07-22T11:09:05;7.03;;;2.67;;
7899;SDS011;3995;50.856;4.404;2023-07-22T11:11:36;4.30;;;2.33;;
7899;SDS011;3995;50.856;4.404;2023-07-22T11:14:15;4.03;;;1.90;;
7899;SDS011;3995;50.856;4.404;2023-07-22T11:16:45;6.60;;;2.30;;
7899;SDS011;3995;50.856;4.404;2023-07-22T11:19:13;6.07;;;2.87;;
7899;SDS011;3995;50.856;4.404;2023-07-22T11:21:40;4.53;;;2.30;;
7899;SDS011;3995;50.856;4.404;2023-07-22T11:24:08;4.00;;;2.13;;
7899;SDS011;3995;50.856;4.404;2023-07-22T11:26:36;4.93;;;2.57;;
7899;SDS011;3995;50.856;4.404;2023-07-22T11:29:04;5.50;;;2.10;;
7899;SDS011;3995;50.856;4.404;2023-07-22T11:31:35;3.33;;;2.23;;
7899;SDS011;3995;50.856;4.404;2023-07-22T11:34:07;6.83;;;2.00;;
7899;SDS011;3995;50.856;4.404;2023-07-22T11:36:35;3.00;;;1.93;;
7899;SDS011;3995;50.856;4.404;2023-07-22T11:39:03;3.00;;;2.20;;
7899;SDS011;3995;50.856;4.404;2023-07-22T11:41:31;3.50;;;1.83;;
7899;SDS011;3995;50.856;4.404;2023-07-22T11:44:00;5.63;;;2.33;;
7899;SDS011;3995;50.856;4.404;2023-07-22T11:46:32;3.10;;;1.90;;
7899;SDS011;3995;50.856;4.404;2023-07-22T11:49:05;3.70;;;2.00;;
7899;SDS011;3995;50.856;4.404;2023-07-22T11:51:32;5.37;;;2.30;;
7899;SDS011;3995;50.856;4.404;2023-07-22T11:53:59;4.50;;;2.00;;
7899;SDS011;3995;50.856;4.404;2023-07-22T11:56:27;5.30;;;2.80;;
7899;SDS011;3995;50.856;4.404;2023-07-22T11:58:55;7.93;;;2.47;;
7899;SDS011;3995;50.856;4.404;2023-07-22T12:01:29;7.10;;;2.30;;
7899;SDS011;3995;50.856;4.404;2023-07-22T12:04:00;2.80;;;1.80;;
7899;SDS011;3995;50.856;4.404;2023-07-22T12:06:27;3.17;;;1.93;;
7899;SDS011;3995;50.856;4.404;2023-07-22T12:08:55;2.93;;;2.23;;
7899;SDS011;3995;50.856;4.404;2023-07-22T12:11:23;5.73;;;2.20;;
7899;SDS011;3995;50.856;4.404;2023-07-22T12:14:04;6.70;;;2.23;;
7899;SDS011;3995;50.856;4.404;2023-07-22T12:16:33;3.77;;;2.20;;
7899;SDS011;3995;50.856;4.404;2023-07-22T12:19:03;3.67;;;2.10;;
7899;SDS011;3995;50.856;4.404;2023-07-22T12:21:32;5.53;;;2.40;;
7899;SDS011;3995;50.856;4.404;2023-07-22T12:23:59;2.83;;;1.67;;
7899;SDS011;3995;50.856;4.404;2023-07-22T12:26:29;2.73;;;1.83;;
7899;SDS011;3995;50.856;4.404;2023-07-22T12:28:56;2.73;;;2.03;;
7899;SDS011;3995;50.856;4.404;2023-07-22T12:31:24;3.00;;;1.73;;
7899;SDS011;3995;50.856;4.404;2023-07-22T12:33:52;4.03;;;1.80;;
7899;SDS011;3995;50.856;4.404;2023-07-22T12:36:21;3.40;;;1.67;;
7899;SDS011;3995;50.856;4.404;2023-07-22T12:38:50;7.30;;;2.10;;
7899;SDS011;3995;50.856;4.404;2023-07-22T12:41:17;2.00;;;1.40;;
7899;SDS011;3995;50.856;4.404;2023-07-22T12:43:45;3.20;;;2.00;;
7899;SDS011;3995;50.856;4.404;2023-07-22T12:46:14;3.03;;;2.00;;
7899;SDS011;3995;50.856;4.404;2023-07-22T12:48:41;2.37;;;1.50;;
7899;SDS011;3995;50.856;4.404;2023-07-22T12:51:09;3.03;;;1.80;;
7899;SDS011;3995;50.856;4.404;2023-07-22T12:53:39;2.30;;;1.70;;
7899;SDS011;3995;50.856;4.404;2023-07-22T12:56:07;2.40;;;1.40;;
7899;SDS011;3995;50.856;4.404;2023-07-22T12:58:34;2.97;;;1.67;;
7899;SDS011;3995;50.856;4.404;2023-07-22T13:01:02;4.20;;;1.77;;
7899;SDS011;3995;50.856;4.404;2023-07-22T13:03:29;10.03;;;1.90;;
7899;SDS011;3995;50.856;4.404;2023-07-22T13:05:56;5.40;;;1.57;;
7899;SDS011;3995;50.856;4.404;2023-07-22T13:08:24;2.87;;;1.63;;
7899;SDS011;3995;50.856;4.404;2023-07-22T13:10:53;2.80;;;1.60;;
7899;SDS011;3995;50.856;4.404;2023-07-22T13:13:20;2.50;;;1.43;;
7899;SDS011;3995;50.856;4.404;2023-07-22T13:15:48;5.20;;;2.23;;
7899;SDS011;3995;50.856;4.404;2023-07-22T13:18:16;4.83;;;1.90;;
7899;SDS011;3995;50.856;4.404;2023-07-22T13:20:43;2.63;;;2.10;;
7899;SDS011;3995;50.856;4.404;2023-07-22T13:23:11;4.50;;;2.30;;
7899;SDS011;3995;50.856;4.404;2023-07-22T13:25:39;3.27;;;1.93;;
7899;SDS011;3995;50.856;4.404;2023-07-22T13:28:08;3.23;;;2.00;;
7899;SDS011;3995;50.856;4.404;2023-07-22T13:30:36;1.90;;;1.60;;
7899;SDS011;3995;50.856;4.404;2023-07-22T13:33:04;4.27;;;1.97;;
7899;SDS011;3995;50.856;4.404;2023-07-22T13:35:31;4.07;;;1.97;;
7899;SDS011;3995;50.856;4.404;2023-07-22T13:37:59;3.90;;;2.00;;
7899;SDS011;3995;50.856;4.404;2023-07-22T13:40:26;3.43;;;1.80;;
7899;SDS011;3995;50.856;4.404;2023-07-22T13:42:54;5.07;;;1.80;;
7899;SDS011;3995;50.856;4.404;2023-07-22T13:45:23;4.17;;;1.83;;
7899;SDS011;3995;50.856;4.404;2023-07-22T13:47:51;2.87;;;1.77;;
7899;SDS011;3995;50.856;4.404;2023-07-22T13:50:18;2.90;;;1.53;;
7899;SDS011;3995;50.856;4.404;2023-07-22T13:52:46;3.40;;;1.90;;
7899;SDS011;3995;50.856;4.404;2023-07-22T13:55:16;2.33;;;1.83;;
7899;SDS011;3995;50.856;4.404;2023-07-22T13:57:43;3.77;;;2.03;;
7899;SDS011;3995;50.856;4.404;2023-07-22T14:00:10;2.43;;;2.00;;
7899;SDS011;3995;50.856;4.404;2023-07-22T14:02:40;5.33;;;2.07;;
7899;SDS011;3995;50.856;4.404;2023-07-22T14:05:08;4.83;;;1.90;;
7899;SDS011;3995;50.856;4.404;2023-07-22T14:07:36;8.03;;;2.10;;
7899;SDS011;3995;50.856;4.404;2023-07-22T14:10:04;6.50;;;1.63;;
7899;SDS011;3995;50.856;4.404;2023-07-22T14:12:33;2.27;;;1.80;;
7899;SDS011;3995;50.856;4.404;2023-07-22T14:15:00;5.30;;;2.50;;
7899;SDS011;3995;50.856;4.404;2023-07-22T14:17:29;4.93;;;2.10;;
7899;SDS011;3995;50.856;4.404;2023-07-22T14:19:58;3.53;;;1.73;;
7899;SDS011;3995;50.856;4.404;2023-07-22T14:22:26;2.20;;;1.80;;
7899;SDS011;3995;50.856;4.404;2023-07-22T14:24:53;7.13;;;1.90;;
7899;SDS011;3995;50.856;4.404;2023-07-22T14:27:20;3.33;;;2.07;;
7899;SDS011;3995;50.856;4.404;2023-07-22T14:29:48;3.87;;;2.20;;
7899;SDS011;3995;50.856;4.404;2023-07-22T14:32:15;2.80;;;1.80;;
7899;SDS011;3995;50.856;4.404;2023-07-22T14:34:43;2.90;;;1.70;;
7899;SDS011;3995;50.856;4.404;2023-07-22T14:37:13;6.07;;;1.80;;
7899;SDS011;3995;50.856;4.404;2023-07-22T14:39:40;4.70;;;2.27;;
7899;SDS011;3995;50.856;4.404;2023-07-22T14:42:08;7.33;;;1.90;;
7899;SDS011;3995;50.856;4.404;2023-07-22T14:44:36;2.57;;;1.87;;
7899;SDS011;3995;50.856;4.404;2023-07-22T14:47:04;8.93;;;1.87;;
7899;SDS011;3995;50.856;4.404;2023-07-22T14:49:32;2.63;;;2.03;;
7899;SDS011;3995;50.856;4.404;2023-07-22T14:51:59;4.03;;;2.60;;
7899;SDS011;3995;50.856;4.404;2023-07-22T14:54:29;6.70;;;2.20;;
7899;SDS011;3995;50.856;4.404;2023-07-22T14:56:56;3.33;;;2.10;;
7899;SDS011;3995;50.856;4.404;2023-07-22T14:59:24;4.40;;;1.87;;
7899;SDS011;3995;50.856;4.404;2023-07-22T15:01:51;4.60;;;2.23;;
7899;SDS011;3995;50.856;4.404;2023-07-22T15:04:19;3.60;;;2.10;;
7899;SDS011;3995;50.856;4.404;2023-07-22T15:06:47;2.40;;;2.10;;
7899;SDS011;3995;50.856;4.404;2023-07-22T15:09:15;4.83;;;2.10;;
7899;SDS011;3995;50.856;4.404;2023-07-22T15:11:44;4.40;;;1.97;;
7899;SDS011;3995;50.856;4.404;2023-07-22T15:14:11;3.33;;;1.90;;
7899;SDS011;3995;50.856;4.404;2023-07-22T15:16:39;4.93;;;2.10;;